createdAt,value
2023-05-12T00:04:01.959Z,60.44
2023-05-12T00:09:03.918Z,59.56
2023-05-12T00:14:06.473Z,58.09
2023-05-12T00:19:08.878Z,59.10
2023-05-12T00:24:10.593Z,61.08
2023-05-12T00:29:12.329Z,59.68
2023-05-12T00:34:13.986Z,60.11
2023-05-12T00:39:15.635Z,59.43
2023-05-12T00:44:18.502Z,60.37
2023-05-12T00:49:20.956Z,59.58
2023-05-12T00:54:23.300Z,59.59
2023-05-12T00:59:25.002Z,57.37
2023-05-12T01:04:26.678Z,57.13
2023-05-12T01:09:28.417Z,58.04
2023-05-12T01:14:30.121Z,60.51
2023-05-12T01:19:44.050Z,59.21
2023-05-12T01:24:50.531Z,56.74
2023-05-12T01:29:53.205Z,59.04
2023-05-12T01:34:54.907Z,57.16
2023-05-12T01:39:56.605Z,56.79
2023-05-12T01:44:58.221Z,57.03
2023-05-12T01:49:59.843Z,57.34
2023-05-12T01:55:01.460Z,56.85
2023-05-12T02:00:03.936Z,58.33
2023-05-12T02:05:06.057Z,58.66
2023-05-12T02:10:08.312Z,59.63
2023-05-12T02:15:10.372Z,59.12
2023-05-12T02:20:12.509Z,54.08
2023-05-12T02:25:14.382Z,57.42
2023-05-12T02:30:16.039Z,56.69
2023-05-12T02:35:17.787Z,58.30
2023-05-12T02:40:19.753Z,58.94
2023-05-12T02:45:21.521Z,58.48
2023-05-12T02:50:23.296Z,60.68
2023-05-12T02:55:25.097Z,61.22
2023-05-12T03:00:26.800Z,61.08
2023-05-12T03:05:28.555Z,61.27
2023-05-12T03:10:30.623Z,60.12
2023-05-12T03:15:32.381Z,59.34
2023-05-12T03:20:34.170Z,60.93
2023-05-12T03:25:36.051Z,59.60
2023-05-12T03:30:37.743Z,57.32
2023-05-12T03:35:39.744Z,57.84
2023-05-12T03:40:41.452Z,57.81
2023-05-12T03:45:43.178Z,57.72
2023-05-12T03:50:44.846Z,58.03
2023-05-12T03:55:46.620Z,57.45
2023-05-12T04:00:50.170Z,57.05
2023-05-12T04:05:58.188Z,58.11
2023-05-12T04:11:01.432Z,57.32
2023-05-12T04:16:03.326Z,57.37
2023-05-12T04:21:05.535Z,57.99
2023-05-12T04:26:07.275Z,55.09
2023-05-12T04:31:08.924Z,57.31
2023-05-12T04:36:10.746Z,55.09
2023-05-12T04:41:12.486Z,57.29
2023-05-12T04:46:14.250Z,56.77
2023-05-12T04:51:16.127Z,57.45
2023-05-12T04:56:17.763Z,57.89
2023-05-12T05:01:19.497Z,57.13
2023-05-12T05:06:21.239Z,55.21
2023-05-12T05:11:23.439Z,54.43
2023-05-12T05:16:25.336Z,57.55
2023-05-12T05:21:27.040Z,54.41
2023-05-12T05:26:29.052Z,51.96
2023-05-12T05:31:30.802Z,54.97
2023-05-12T05:36:32.522Z,54.20
2023-05-12T05:41:34.164Z,54.78
2023-05-12T05:46:35.909Z,55.83
2023-05-12T05:51:37.773Z,55.20
2023-05-12T05:56:39.514Z,56.91
2023-05-12T06:01:41.179Z,52.86
2023-05-12T06:06:42.965Z,56.53
2023-05-12T06:11:44.709Z,56.08
2023-05-12T06:16:46.404Z,52.87
2023-05-12T06:21:48.125Z,51.99
2023-05-12T06:26:49.733Z,53.10
2023-05-12T06:31:51.582Z,51.58
2023-05-12T06:36:55.009Z,54.51
2023-05-12T06:41:57.010Z,53.48
2023-05-12T06:46:59.413Z,56.33
2023-05-12T06:52:01.290Z,52.01
2023-05-12T06:57:03.001Z,53.96
2023-05-12T07:02:04.782Z,54.22
2023-05-12T07:07:06.424Z,55.18
2023-05-12T07:12:08.147Z,53.28
2023-05-12T07:17:09.988Z,51.53
2023-05-12T07:22:12.203Z,53.16
2023-05-12T07:27:13.839Z,51.49
2023-05-12T07:32:16.069Z,51.47
2023-05-12T07:37:18.186Z,52.05
2023-05-12T07:42:19.935Z,51.65
2023-05-12T07:47:21.642Z,49.53
2023-05-12T07:52:24.270Z,50.72
2023-05-12T07:57:26.124Z,49.15
2023-05-12T08:02:27.800Z,50.71
2023-05-12T08:07:29.521Z,49.40
2023-05-12T08:12:31.296Z,49.14
2023-05-12T08:17:33.024Z,50.14
2023-05-12T08:22:34.666Z,49.53
2023-05-12T08:27:36.299Z,47.73
2023-05-12T08:32:38.214Z,47.52
2023-05-12T08:37:39.843Z,49.42
2023-05-12T08:43:02.101Z,49.57
2023-05-12T08:48:05.660Z,48.38
2023-05-12T08:53:11.848Z,47.52
2023-05-12T08:58:15.133Z,48.89
2023-05-12T09:03:18.322Z,50.36
2023-05-12T09:08:20.098Z,48.94
2023-05-12T09:14:01.001Z,48.46
2023-05-12T09:19:04.616Z,48.22
2023-05-12T09:24:09.083Z,48.98
2023-05-12T09:29:15.741Z,49.15
2023-05-12T09:34:32.391Z,48.96
2023-05-12T09:39:37.856Z,48.75
2023-05-12T09:44:40.927Z,48.94
2023-05-12T09:49:46.565Z,50.07
2023-05-12T09:54:48.561Z,49.17
2023-05-12T09:59:51.348Z,49.09
2023-05-12T10:04:58.388Z,46.94
2023-05-12T10:10:03.218Z,47.00
2023-05-12T10:15:07.543Z,45.15
2023-05-12T10:20:10.273Z,46.82
2023-05-12T10:25:13.951Z,47.88
2023-05-12T10:30:16.369Z,45.78
2023-05-12T10:35:18.953Z,46.87
2023-05-12T10:40:25.626Z,45.41
2023-05-12T10:45:28.191Z,46.83
2023-05-12T10:50:30.684Z,47.31
2023-05-12T10:55:35.551Z,46.54
2023-05-12T11:06:30.594Z,53.75
2023-05-12T11:11:33.740Z,53.94
2023-05-12T11:16:42.558Z,54.42
2023-05-12T11:21:44.317Z,55.31
2023-05-12T11:26:46.154Z,55.85
2023-05-12T11:31:49.188Z,53.89
2023-05-12T11:36:52.906Z,53.81
2023-05-12T11:42:05.425Z,52.61
2023-05-12T11:47:14.627Z,51.21
2023-05-12T11:52:17.488Z,52.08
2023-05-12T11:57:30.093Z,51.17
2023-05-12T12:02:32.697Z,51.97
2023-05-12T12:07:36.017Z,50.78
2023-05-12T12:12:37.636Z,50.07
2023-05-12T12:17:40.359Z,51.73
2023-05-12T12:22:42.187Z,49.41
2023-05-12T12:27:43.726Z,49.00
2023-05-12T12:32:46.130Z,48.73
2023-05-12T12:37:53.953Z,48.59
2023-05-12T12:42:55.726Z,46.97
2023-05-12T12:47:57.489Z,48.11
2023-05-12T12:52:59.214Z,48.59
2023-05-12T12:58:00.779Z,48.85
2023-05-12T13:03:02.519Z,48.07
2023-05-12T13:08:04.730Z,50.19
2023-05-12T13:13:06.320Z,48.98
2023-05-12T13:18:07.993Z,48.39
2023-05-12T13:23:09.648Z,49.87
2023-05-12T13:28:11.168Z,50.20
2023-05-12T13:33:12.906Z,50.04
2023-05-12T13:38:14.568Z,50.48
2023-05-12T13:43:16.254Z,48.60
2023-05-12T13:48:17.928Z,48.29
2023-05-12T13:53:19.698Z,49.73
2023-05-12T13:58:21.257Z,47.65
2023-05-12T14:03:23.155Z,48.26
2023-05-12T14:08:24.716Z,47.65
2023-05-12T14:13:26.421Z,48.73
2023-05-12T14:18:28.180Z,52.60
2023-05-12T14:23:29.853Z,54.10
2023-05-12T14:28:31.668Z,54.38
2023-05-12T14:33:33.282Z,56.03
2023-05-12T14:38:35.223Z,54.02
2023-05-12T14:43:37.474Z,55.45
2023-05-12T14:48:39.035Z,58.97
2023-05-12T14:53:40.784Z,57.40
2023-05-12T14:58:42.317Z,56.67
2023-05-12T15:03:44.372Z,56.86
2023-05-12T15:08:46.099Z,56.47
2023-05-12T15:13:47.854Z,56.98
2023-05-12T15:18:50.195Z,56.69
2023-05-12T15:23:51.781Z,57.57
2023-05-12T15:28:53.468Z,54.78
2023-05-12T15:33:56.810Z,53.50
2023-05-12T15:38:58.811Z,52.61
2023-05-12T15:44:00.360Z,53.13
2023-05-12T15:49:02.292Z,54.09
2023-05-12T15:54:05.267Z,54.81
2023-05-12T15:59:07.568Z,54.78
2023-05-12T16:04:09.165Z,53.90
2023-05-12T16:09:11.152Z,55.73
2023-05-12T16:14:13.978Z,52.48
2023-05-12T16:19:15.917Z,56.27
2023-05-12T16:24:17.711Z,53.26
2023-05-12T16:29:19.305Z,55.52
2023-05-12T16:34:21.225Z,54.03
2023-05-12T16:39:22.816Z,54.75
2023-05-12T16:44:24.804Z,53.43
2023-05-12T16:49:26.521Z,54.41
2023-05-12T16:54:28.212Z,54.58
2023-05-12T16:59:32.356Z,55.29
2023-05-12T17:04:34.618Z,53.11
2023-05-12T17:09:36.443Z,55.87
2023-05-12T17:14:37.997Z,53.45
2023-05-12T17:19:42.066Z,52.81
2023-05-12T17:24:44.457Z,53.60
2023-05-12T17:29:46.104Z,53.91
2023-05-12T17:34:50.475Z,54.58
2023-05-12T17:39:52.451Z,52.77
2023-05-12T17:44:54.094Z,53.02
2023-05-12T17:49:55.780Z,54.55
2023-05-12T17:54:57.466Z,52.63
2023-05-12T17:59:59.153Z,53.97
2023-05-12T18:05:00.698Z,54.50
2023-05-12T18:10:02.716Z,53.51
2023-05-12T18:15:06.308Z,51.33
2023-05-12T18:20:08.830Z,51.96
2023-05-12T18:25:12.804Z,52.47
2023-05-12T18:30:14.892Z,53.13
2023-05-12T18:35:16.698Z,53.49
2023-05-12T18:40:18.283Z,55.18
2023-05-12T18:45:20.346Z,55.01
2023-05-12T18:50:22.297Z,54.16
2023-05-12T18:55:23.969Z,53.93
2023-05-12T19:00:27.638Z,53.84
2023-05-12T19:05:29.993Z,54.80
2023-05-12T19:10:31.582Z,54.42
2023-05-12T19:15:33.226Z,54.14
2023-05-12T19:20:36.301Z,55.91
2023-05-12T19:25:37.873Z,54.39
2023-05-12T19:30:39.539Z,56.35
2023-05-12T19:35:41.138Z,54.42
2023-05-12T19:40:42.730Z,56.10
2023-05-12T19:45:44.352Z,55.07
2023-05-12T19:50:46.880Z,54.63
2023-05-12T19:55:48.444Z,54.58
2023-05-12T20:00:50.063Z,57.31
2023-05-12T20:05:51.645Z,55.25
2023-05-12T20:10:53.239Z,55.19
2023-05-12T20:15:55.075Z,54.61
2023-05-12T20:20:56.684Z,54.58
2023-05-12T20:25:58.341Z,54.27
2023-05-12T20:30:59.971Z,54.64
2023-05-12T20:36:01.788Z,54.37
2023-05-12T20:41:05.368Z,53.47
2023-05-12T20:46:07.323Z,54.61
2023-05-12T20:51:12.881Z,55.92
2023-05-12T20:56:14.638Z,53.39
2023-05-12T21:01:16.946Z,53.93
2023-05-12T21:06:18.545Z,53.75
2023-05-12T21:11:20.081Z,52.50
2023-05-12T21:16:21.935Z,52.65
2023-05-12T21:21:23.557Z,52.13
2023-05-12T21:26:26.850Z,52.48
2023-05-12T21:31:29.273Z,54.35
2023-05-12T21:36:31.655Z,54.78
2023-05-12T21:41:33.357Z,56.06
2023-05-12T21:46:35.661Z,52.98
2023-05-12T21:51:37.390Z,54.86
2023-05-12T21:56:38.994Z,53.15
2023-05-12T22:01:40.606Z,55.34
2023-05-12T22:06:42.448Z,55.60
2023-05-12T22:11:45.096Z,52.43
2023-05-12T22:16:47.096Z,54.97
2023-05-12T22:21:48.933Z,53.88
2023-05-12T22:26:50.833Z,53.88
2023-05-12T22:31:52.396Z,54.50
2023-05-12T22:36:54.036Z,54.81
2023-05-12T22:41:55.842Z,54.67
2023-05-12T22:46:57.702Z,53.46
2023-05-12T22:51:59.858Z,54.14
2023-05-12T22:57:01.404Z,54.50
2023-05-12T23:02:03.416Z,53.60
2023-05-12T23:07:06.963Z,52.85
2023-05-12T23:12:10.613Z,53.10
2023-05-12T23:17:12.297Z,52.62
2023-05-12T23:22:13.962Z,53.27
2023-05-12T23:27:15.652Z,54.18
2023-05-12T23:32:17.354Z,51.64
2023-05-12T23:37:21.767Z,53.63
2023-05-12T23:42:23.324Z,54.36
2023-05-12T23:47:25.018Z,51.55
2023-05-12T23:52:26.680Z,54.80
2023-05-12T23:57:28.258Z,54.40
